createdAt,value
2023-03-31T00:01:58.626Z,7.42
2023-03-31T00:04:32.704Z,7.40
2023-03-31T00:07:06.394Z,7.38
2023-03-31T00:09:37.031Z,7.35
2023-03-31T00:12:07.941Z,7.33
2023-03-31T00:14:37.892Z,7.30
2023-03-31T00:17:06.904Z,7.28
2023-03-31T00:19:38.024Z,7.25
2023-03-31T00:22:09.794Z,7.20
2023-03-31T00:24:39.805Z,7.15
2023-03-31T00:27:10.473Z,7.09
2023-03-31T00:29:42.214Z,7.06
2023-03-31T00:32:14.785Z,7.05
2023-03-31T00:34:47.362Z,6.99
2023-03-31T00:37:20.979Z,6.95
2023-03-31T00:39:51.140Z,6.91
2023-03-31T00:42:21.537Z,6.87
2023-03-31T00:45:18.646Z,6.86
2023-03-31T00:47:58.495Z,6.82
2023-03-31T00:50:36.585Z,6.75
2023-03-31T00:53:13.684Z,6.68
2023-03-31T00:55:52.028Z,6.62
2023-03-31T00:58:29.328Z,6.56
2023-03-31T01:01:00.912Z,6.52
2023-03-31T01:03:33.767Z,6.46
2023-03-31T01:06:07.530Z,6.45
2023-03-31T01:08:40.663Z,6.45
2023-03-31T01:11:14.582Z,6.44
2023-03-31T01:13:46.559Z,6.40
2023-03-31T01:16:18.335Z,6.35
2023-03-31T01:18:50.229Z,6.28
2023-03-31T01:21:31.790Z,6.23
2023-03-31T01:24:25.646Z,6.20
2023-03-31T01:27:14.392Z,6.19
2023-03-31T01:29:49.513Z,6.14
2023-03-31T01:32:27.367Z,6.12
2023-03-31T01:35:12.621Z,6.09
2023-03-31T01:37:53.800Z,6.08
2023-03-31T01:40:35.592Z,6.05
2023-03-31T01:43:26.711Z,6.02
2023-03-31T01:46:11.777Z,5.97
2023-03-31T01:49:05.855Z,5.94
2023-03-31T01:52:06.680Z,5.93
2023-03-31T01:55:07.294Z,5.92
2023-03-31T01:57:49.213Z,5.89
2023-03-31T02:00:22.569Z,5.87
2023-03-31T02:03:00.038Z,5.83
2023-03-31T02:05:57.969Z,5.80
2023-03-31T02:08:38.943Z,5.76
2023-03-31T02:11:08.893Z,5.73
2023-03-31T02:13:42.487Z,5.74
2023-03-31T02:16:19.745Z,5.70
2023-03-31T02:18:53.495Z,5.70
2023-03-31T02:21:23.524Z,5.69
2023-03-31T02:23:54.161Z,5.65
2023-03-31T02:26:31.920Z,5.66
2023-03-31T02:29:02.934Z,5.67
2023-03-31T02:32:10.146Z,5.66
2023-03-31T02:34:40.780Z,5.68
2023-03-31T02:37:11.612Z,5.70
2023-03-31T02:39:45.953Z,5.71
2023-03-31T02:42:16.431Z,5.69
2023-03-31T02:44:46.281Z,5.69
2023-03-31T02:47:19.962Z,5.69
2023-03-31T02:49:55.868Z,5.69
2023-03-31T02:53:22.254Z,5.68
2023-03-31T02:56:07.374Z,5.68
2023-03-31T02:58:58.207Z,5.66
2023-03-31T03:01:44.622Z,5.65
2023-03-31T03:04:44.588Z,5.65
2023-03-31T03:07:24.578Z,5.65
2023-03-31T03:10:31.953Z,5.64
2023-03-31T03:13:22.809Z,5.62
2023-03-31T03:16:05.898Z,5.57
2023-03-31T03:18:36.908Z,5.52
2023-03-31T03:21:07.904Z,5.47
2023-03-31T03:23:38.581Z,5.41
2023-03-31T03:26:09.696Z,5.35
2023-03-31T03:28:39.057Z,5.30
2023-03-31T03:31:09.867Z,5.26
2023-03-31T03:33:43.980Z,5.23
2023-03-31T03:36:13.923Z,5.19
2023-03-31T03:38:44.106Z,5.18
2023-03-31T03:41:14.638Z,5.19
2023-03-31T03:43:54.539Z,5.19
2023-03-31T03:46:25.304Z,5.18
2023-03-31T03:48:56.452Z,5.19
2023-03-31T03:51:27.308Z,5.22
2023-03-31T03:53:59.879Z,5.23
2023-03-31T03:56:28.908Z,5.25
2023-03-31T03:58:58.864Z,5.27
2023-03-31T04:01:28.172Z,5.26
2023-03-31T04:03:59.205Z,5.23
2023-03-31T04:06:28.870Z,5.23
2023-03-31T04:08:58.694Z,5.23
2023-03-31T04:11:28.662Z,5.22
2023-03-31T04:13:58.917Z,5.24
2023-03-31T04:16:31.164Z,5.21
2023-03-31T04:19:05.473Z,5.16
2023-03-31T04:21:35.392Z,5.11
2023-03-31T04:24:05.147Z,5.08
2023-03-31T04:26:46.378Z,5.03
2023-03-31T04:29:17.979Z,5.03
2023-03-31T04:31:47.833Z,5.03
2023-03-31T04:34:18.248Z,5.03
2023-03-31T04:36:49.020Z,5.02
2023-03-31T04:39:40.733Z,5.01
2023-03-31T04:42:10.526Z,5.00
2023-03-31T04:44:40.579Z,4.98
2023-03-31T04:47:10.910Z,4.97
2023-03-31T04:49:40.333Z,4.97
2023-03-31T04:52:09.865Z,4.96
2023-03-31T04:54:44.258Z,4.98
2023-03-31T04:57:15.358Z,5.03
2023-03-31T04:59:44.648Z,5.06
2023-03-31T05:02:25.207Z,5.06
2023-03-31T05:04:55.434Z,5.04
2023-03-31T05:07:25.408Z,5.06
2023-03-31T05:09:55.272Z,5.09
2023-03-31T05:12:26.357Z,5.13
2023-03-31T05:14:56.596Z,5.15
2023-03-31T05:17:26.043Z,5.18
2023-03-31T05:19:55.494Z,5.22
2023-03-31T05:22:26.426Z,5.24
2023-03-31T05:24:56.100Z,5.29
2023-03-31T05:27:25.532Z,5.34
2023-03-31T05:29:55.561Z,5.39
2023-03-31T05:32:28.121Z,5.43
2023-03-31T05:34:58.171Z,5.44
2023-03-31T05:37:28.137Z,5.47
2023-03-31T05:39:57.674Z,5.50
2023-03-31T05:42:27.937Z,5.52
2023-03-31T05:44:58.201Z,5.55
2023-03-31T05:47:29.153Z,5.59
2023-03-31T05:49:59.019Z,5.61
2023-03-31T05:52:28.426Z,5.62
2023-03-31T05:54:58.251Z,5.63
2023-03-31T05:57:27.983Z,5.63
2023-03-31T05:59:58.313Z,5.52
2023-03-31T06:02:29.123Z,5.44
2023-03-31T06:04:59.587Z,5.39
2023-03-31T06:07:30.188Z,5.36
2023-03-31T06:09:59.494Z,5.38
2023-03-31T06:12:29.439Z,5.43
2023-03-31T06:14:59.401Z,5.42
2023-03-31T06:17:30.025Z,5.42
2023-03-31T06:20:00.088Z,5.42
2023-03-31T06:22:30.441Z,5.39
2023-03-31T06:25:00.000Z,5.32
2023-03-31T06:27:31.441Z,5.29
2023-03-31T06:30:01.209Z,5.30
2023-03-31T06:32:31.293Z,5.33
2023-03-31T06:35:01.924Z,5.37
2023-03-31T06:37:32.244Z,5.40
2023-03-31T06:40:01.645Z,5.44
2023-03-31T06:42:32.703Z,5.49
2023-03-31T06:45:02.678Z,5.50
2023-03-31T06:47:34.672Z,5.55
2023-03-31T06:50:04.985Z,5.57
2023-03-31T06:52:34.393Z,5.60
2023-03-31T06:55:04.463Z,5.68
2023-03-31T06:57:34.639Z,5.70
2023-03-31T07:00:06.262Z,5.75
2023-03-31T07:02:38.252Z,5.78
2023-03-31T07:05:08.539Z,5.78
2023-03-31T07:07:41.620Z,5.79
2023-03-31T07:10:12.633Z,5.80
2023-03-31T07:12:43.172Z,5.81
2023-03-31T07:15:13.291Z,5.85
2023-03-31T07:17:43.496Z,5.90
2023-03-31T07:20:18.738Z,5.93
2023-03-31T07:22:52.001Z,5.99
2023-03-31T07:25:22.018Z,6.03
2023-03-31T07:27:51.310Z,6.07
2023-03-31T07:30:22.067Z,6.09
2023-03-31T07:32:52.591Z,6.11
2023-03-31T07:35:23.753Z,6.13
2023-03-31T07:37:53.108Z,6.16
2023-03-31T07:40:26.809Z,6.19
2023-03-31T07:42:57.784Z,6.26
2023-03-31T07:45:28.367Z,6.30
2023-03-31T07:47:57.806Z,6.34
2023-03-31T07:50:28.231Z,6.38
2023-03-31T07:52:59.301Z,6.47
2023-03-31T07:55:28.790Z,6.57
2023-03-31T07:57:59.352Z,6.64
2023-03-31T08:00:28.874Z,6.69
2023-03-31T08:02:58.392Z,6.79
2023-03-31T08:05:28.604Z,6.88
2023-03-31T08:07:58.972Z,6.97
2023-03-31T08:10:29.082Z,7.01
2023-03-31T08:12:58.465Z,7.05
2023-03-31T08:15:28.998Z,7.09
2023-03-31T08:17:59.105Z,7.07
2023-03-31T08:20:28.935Z,7.07
2023-03-31T08:22:59.241Z,7.09
2023-03-31T08:25:29.065Z,7.11
2023-03-31T08:27:58.454Z,7.18
2023-03-31T08:30:28.305Z,7.29
2023-03-31T08:33:00.249Z,7.38
2023-03-31T08:35:31.598Z,7.46
2023-03-31T08:38:02.015Z,7.50
2023-03-31T08:40:33.612Z,7.56
2023-03-31T08:43:14.279Z,7.62
2023-03-31T08:45:48.300Z,7.69
2023-03-31T08:48:39.118Z,7.74
2023-03-31T08:51:39.983Z,7.87
2023-03-31T08:54:16.235Z,8.06
2023-03-31T08:56:50.272Z,8.27
2023-03-31T08:59:35.246Z,8.50
2023-03-31T09:02:34.211Z,8.73
2023-03-31T09:05:15.354Z,8.97
2023-03-31T09:08:04.541Z,9.16
2023-03-31T09:11:08.801Z,9.36
2023-03-31T09:13:58.907Z,9.55
2023-03-31T09:16:54.186Z,9.70
2023-03-31T09:19:41.768Z,9.76
2023-03-31T09:22:26.834Z,9.77
2023-03-31T09:25:27.392Z,9.79
2023-03-31T09:28:01.862Z,9.76
2023-03-31T09:30:37.220Z,9.70
2023-03-31T09:33:17.682Z,9.65
2023-03-31T09:35:49.297Z,9.64
2023-03-31T09:38:20.586Z,9.67
2023-03-31T09:40:50.836Z,9.76
2023-03-31T09:43:27.080Z,9.86
2023-03-31T09:46:09.267Z,9.95
2023-03-31T09:48:45.529Z,10.12
2023-03-31T09:51:31.094Z,10.23
2023-03-31T09:54:04.589Z,10.43
2023-03-31T09:56:46.950Z,10.57
2023-03-31T09:59:22.900Z,10.80
2023-03-31T10:01:54.704Z,11.14
2023-03-31T10:04:28.588Z,11.39
2023-03-31T10:07:01.495Z,11.59
2023-03-31T10:09:31.871Z,11.86
2023-03-31T10:12:17.003Z,12.11
2023-03-31T10:14:50.667Z,12.46
2023-03-31T10:17:24.216Z,12.64
2023-03-31T10:19:57.769Z,12.77
2023-03-31T10:22:33.291Z,12.94
2023-03-31T10:25:22.052Z,13.16
2023-03-31T10:27:56.438Z,13.22
2023-03-31T10:30:35.920Z,13.13
2023-03-31T10:33:22.798Z,13.13
2023-03-31T10:36:24.889Z,13.06
2023-03-31T10:38:56.374Z,13.01
2023-03-31T10:41:31.351Z,12.97
2023-03-31T10:44:05.002Z,12.90
2023-03-31T10:46:49.110Z,12.93
2023-03-31T10:49:27.265Z,13.03
2023-03-31T10:51:59.816Z,13.14
2023-03-31T10:54:29.284Z,13.25
2023-03-31T10:57:05.311Z,13.43
2023-03-31T10:59:44.954Z,13.76
2023-03-31T11:02:51.602Z,13.96
2023-03-31T11:05:54.714Z,14.04
2023-03-31T11:08:45.557Z,14.22
2023-03-31T11:11:31.733Z,14.33
2023-03-31T11:14:03.748Z,14.42
2023-03-31T11:16:49.027Z,14.58
2023-03-31T11:19:54.683Z,14.84
2023-03-31T11:22:47.259Z,15.19
2023-03-31T11:25:53.824Z,15.54
2023-03-31T11:28:31.623Z,16.06
2023-03-31T11:31:14.051Z,16.55
2023-03-31T11:34:14.783Z,17.02
2023-03-31T11:37:12.355Z,17.40
2023-03-31T11:40:05.290Z,17.58
2023-03-31T11:42:44.233Z,17.88
2023-03-31T11:45:38.335Z,18.28
2023-03-31T11:48:51.058Z,18.56
2023-03-31T11:51:49.784Z,18.68
2023-03-31T11:54:34.605Z,18.51
2023-03-31T11:57:18.529Z,18.63
2023-03-31T11:59:56.713Z,18.85
2023-03-31T12:02:56.632Z,19.18
2023-03-31T12:05:29.446Z,19.46
2023-03-31T12:08:03.779Z,19.71
2023-03-31T12:10:42.246Z,19.91
2023-03-31T12:13:50.033Z,19.79
2023-03-31T12:16:35.849Z,19.88
2023-03-31T12:19:18.096Z,20.28
2023-03-31T12:21:57.938Z,20.69
2023-03-31T12:24:35.588Z,20.73
2023-03-31T12:27:20.079Z,20.80
2023-03-31T12:30:01.302Z,20.97
2023-03-31T12:32:36.842Z,20.99
2023-03-31T12:35:17.367Z,21.07
2023-03-31T12:38:13.547Z,20.97
2023-03-31T12:41:02.494Z,20.72
2023-03-31T12:43:56.620Z,20.36
2023-03-31T12:46:42.521Z,19.98
2023-03-31T12:49:47.542Z,19.76
2023-03-31T12:52:58.549Z,19.72
2023-03-31T12:55:43.562Z,19.55
2023-03-31T12:58:32.481Z,19.39
2023-03-31T13:01:09.353Z,19.31
2023-03-31T13:03:41.585Z,19.15
2023-03-31T13:06:33.200Z,19.25
2023-03-31T13:09:06.478Z,19.31
2023-03-31T13:11:40.985Z,19.28
2023-03-31T13:14:27.440Z,19.22
2023-03-31T13:17:28.751Z,18.79
2023-03-31T13:20:44.157Z,18.41
2023-03-31T13:23:26.358Z,18.06
2023-03-31T13:25:58.670Z,17.78
2023-03-31T13:28:45.489Z,17.62
2023-03-31T13:31:16.405Z,17.36
2023-03-31T13:33:58.141Z,17.23
2023-03-31T13:36:34.351Z,17.42
2023-03-31T13:39:38.485Z,17.52
2023-03-31T13:42:13.756Z,17.79
2023-03-31T13:44:56.509Z,18.12
2023-03-31T13:47:43.910Z,18.55
2023-03-31T13:50:47.225Z,19.18
2023-03-31T13:53:50.098Z,19.68
2023-03-31T13:56:30.261Z,19.80
2023-03-31T13:59:16.469Z,19.62
2023-03-31T14:02:07.904Z,19.30
2023-03-31T14:05:08.982Z,18.89
2023-03-31T14:07:51.357Z,18.44
2023-03-31T14:10:28.188Z,18.10
2023-03-31T14:13:17.035Z,17.90
2023-03-31T14:15:56.359Z,17.69
2023-03-31T14:18:28.451Z,17.61
2023-03-31T14:21:23.726Z,17.62
2023-03-31T14:25:05.360Z,17.57
2023-03-31T14:27:56.712Z,17.72
2023-03-31T14:30:53.053Z,17.64
2023-03-31T14:34:14.378Z,17.42
2023-03-31T14:37:11.835Z,17.11
2023-03-31T14:39:52.173Z,16.69
2023-03-31T14:42:30.364Z,16.40
2023-03-31T14:45:10.497Z,16.05
2023-03-31T14:47:40.101Z,15.76
2023-03-31T14:50:17.668Z,15.57
2023-03-31T14:52:53.535Z,15.33
2023-03-31T14:55:49.439Z,15.14
2023-03-31T14:58:29.705Z,14.96
2023-03-31T15:01:00.179Z,14.89
2023-03-31T15:03:32.643Z,14.93
2023-03-31T15:06:05.246Z,15.04
2023-03-31T15:08:38.476Z,15.29
2023-03-31T15:11:19.525Z,15.62
2023-03-31T15:16:36.281Z,16.14
2023-03-31T15:19:23.315Z,16.22
2023-03-31T15:22:17.036Z,16.16
2023-03-31T15:24:47.010Z,15.95
2023-03-31T15:27:39.851Z,15.75
2023-03-31T15:30:19.595Z,15.49
2023-03-31T15:32:51.017Z,15.29
2023-03-31T15:35:31.281Z,15.14
2023-03-31T15:38:05.250Z,14.96
2023-03-31T15:40:41.602Z,14.79
2023-03-31T15:43:41.493Z,14.66
2023-03-31T15:46:58.278Z,14.53
2023-03-31T15:49:30.444Z,14.36
2023-03-31T15:52:01.867Z,14.23
2023-03-31T15:55:00.266Z,14.11
2023-03-31T15:57:36.562Z,13.99
2023-03-31T16:00:28.047Z,13.90
2023-03-31T16:02:59.891Z,13.76
2023-03-31T16:08:40.642Z,13.52
2023-03-31T16:11:42.902Z,13.35
2023-03-31T16:14:29.234Z,13.16
2023-03-31T16:17:08.188Z,13.02
2023-03-31T16:19:47.590Z,12.90
2023-03-31T16:22:23.818Z,12.74
2023-03-31T16:24:53.956Z,12.57
2023-03-31T16:27:24.975Z,12.42
2023-03-31T16:30:09.306Z,12.34
2023-03-31T16:32:39.260Z,12.20
2023-03-31T16:35:09.062Z,12.10
2023-03-31T16:37:39.602Z,12.03
2023-03-31T16:40:11.515Z,11.99
2023-03-31T16:42:42.084Z,11.94
2023-03-31T16:45:14.945Z,11.86
2023-03-31T16:47:45.872Z,11.81
2023-03-31T16:50:17.646Z,11.76
2023-03-31T16:52:47.904Z,11.70
2023-03-31T16:55:18.096Z,11.61
2023-03-31T16:57:49.057Z,11.54
2023-03-31T17:00:20.298Z,11.49
2023-03-31T17:02:49.825Z,11.42
2023-03-31T17:05:22.978Z,11.36
2023-03-31T17:07:53.936Z,11.30
2023-03-31T17:10:23.305Z,11.21
2023-03-31T17:12:52.859Z,11.16
2023-03-31T17:15:23.907Z,11.09
2023-03-31T17:17:53.995Z,11.02
2023-03-31T17:20:25.646Z,10.94
2023-03-31T17:22:56.233Z,10.86
2023-03-31T17:25:28.019Z,10.80
2023-03-31T17:28:01.337Z,10.76
2023-03-31T17:30:32.981Z,10.72
2023-03-31T17:33:04.637Z,10.67
2023-03-31T17:35:33.914Z,10.57
2023-03-31T17:38:06.631Z,10.50
2023-03-31T17:40:37.749Z,10.41
2023-03-31T17:43:08.026Z,10.30
2023-03-31T17:45:37.384Z,10.20
2023-03-31T17:48:07.708Z,10.10
2023-03-31T17:50:38.690Z,10.02
2023-03-31T17:53:09.810Z,9.92
2023-03-31T17:55:39.657Z,9.82
2023-03-31T17:58:14.545Z,9.71
2023-03-31T18:00:45.089Z,9.62
2023-03-31T18:03:15.627Z,9.53
2023-03-31T18:05:45.774Z,9.44
2023-03-31T18:08:16.552Z,9.33
2023-03-31T18:10:47.869Z,9.25
2023-03-31T18:13:17.818Z,9.21
2023-03-31T18:15:53.200Z,9.16
2023-03-31T18:18:25.222Z,9.07
2023-03-31T18:20:56.617Z,9.00
2023-03-31T18:23:26.540Z,8.97
2023-03-31T18:25:56.487Z,8.94
2023-03-31T18:28:26.831Z,8.93
2023-03-31T18:30:56.657Z,8.92
2023-03-31T18:33:27.861Z,8.91
2023-03-31T18:35:59.237Z,8.86
2023-03-31T18:38:30.040Z,8.80
2023-03-31T18:41:00.922Z,8.74
2023-03-31T18:43:33.144Z,8.72
2023-03-31T18:46:03.434Z,8.70
2023-03-31T18:48:35.626Z,8.70
2023-03-31T18:51:05.493Z,8.71
2023-03-31T18:53:38.599Z,8.68
2023-03-31T18:56:08.269Z,8.62
2023-03-31T18:58:38.087Z,8.57
2023-03-31T19:01:14.611Z,8.51
2023-03-31T19:03:48.032Z,8.47
2023-03-31T19:06:23.000Z,8.43
2023-03-31T19:09:00.230Z,8.36
2023-03-31T19:11:29.916Z,8.32
2023-03-31T19:13:59.273Z,8.22
2023-03-31T19:17:00.872Z,8.15
2023-03-31T19:19:28.934Z,8.08
2023-03-31T19:22:01.325Z,8.02
2023-03-31T19:24:31.584Z,7.99
2023-03-31T19:27:01.568Z,7.98
2023-03-31T19:29:35.734Z,7.97
2023-03-31T19:32:06.639Z,7.92
2023-03-31T19:34:36.890Z,7.91
2023-03-31T19:37:08.222Z,7.94
2023-03-31T19:39:39.364Z,7.98
2023-03-31T19:42:08.799Z,8.01
2023-03-31T19:44:38.882Z,8.05
2023-03-31T19:47:08.432Z,8.09
2023-03-31T19:49:39.131Z,8.15
2023-03-31T19:52:08.864Z,8.21
2023-03-31T19:54:39.086Z,8.29
2023-03-31T19:57:10.015Z,8.35
2023-03-31T19:59:39.947Z,8.42
2023-03-31T20:02:14.300Z,8.47
2023-03-31T20:04:44.557Z,8.51
2023-03-31T20:07:14.146Z,8.56
2023-03-31T20:09:43.648Z,8.58
2023-03-31T20:12:14.612Z,8.55
2023-03-31T20:14:44.541Z,8.49
2023-03-31T20:17:14.253Z,8.49
2023-03-31T20:19:43.743Z,8.53
2023-03-31T20:22:14.218Z,8.56
2023-03-31T20:24:44.763Z,8.59
2023-03-31T20:27:14.803Z,8.61
2023-03-31T20:29:46.081Z,8.62
2023-03-31T20:32:17.773Z,8.64
2023-03-31T20:34:48.211Z,8.67
2023-03-31T20:37:17.573Z,8.66
2023-03-31T20:39:49.039Z,8.65
2023-03-31T20:42:19.128Z,8.68
2023-03-31T20:44:49.020Z,8.69
2023-03-31T20:47:20.311Z,8.71
2023-03-31T20:49:50.879Z,8.72
2023-03-31T20:52:22.172Z,8.74
2023-03-31T20:54:52.133Z,8.77
2023-03-31T20:57:22.317Z,8.81
2023-03-31T20:59:53.511Z,8.85
2023-03-31T21:02:23.294Z,8.88
2023-03-31T21:04:53.794Z,8.91
2023-03-31T21:07:24.949Z,8.94
2023-03-31T21:09:54.192Z,9.00
2023-03-31T21:12:25.530Z,9.05
2023-03-31T21:14:56.480Z,9.08
2023-03-31T21:17:26.327Z,9.13
2023-03-31T21:19:56.734Z,9.18
2023-03-31T21:22:27.848Z,9.19
2023-03-31T21:24:57.836Z,9.19
2023-03-31T21:27:27.470Z,9.21
2023-03-31T21:29:56.951Z,9.23
2023-03-31T21:32:30.171Z,9.23
2023-03-31T21:35:00.089Z,9.22
2023-03-31T21:37:30.589Z,9.21
2023-03-31T21:40:01.013Z,9.21
2023-03-31T21:42:30.966Z,9.20
2023-03-31T21:45:00.658Z,9.17
2023-03-31T21:47:30.369Z,9.14
2023-03-31T21:50:00.669Z,9.12
2023-03-31T21:52:31.192Z,9.09
2023-03-31T21:55:00.206Z,9.06
2023-03-31T21:57:30.562Z,9.03
2023-03-31T22:00:00.224Z,9.01
2023-03-31T22:02:32.846Z,8.99
2023-03-31T22:05:08.061Z,8.95
2023-03-31T22:07:38.943Z,8.95
2023-03-31T22:10:10.148Z,8.94
2023-03-31T22:12:40.786Z,8.94
2023-03-31T22:15:11.958Z,8.94
2023-03-31T22:17:42.268Z,8.93
2023-03-31T22:20:14.097Z,8.94
2023-03-31T22:22:44.365Z,8.95
2023-03-31T22:25:14.316Z,8.96
2023-03-31T22:27:43.973Z,8.95
2023-03-31T22:30:14.824Z,8.94
2023-03-31T22:32:48.981Z,8.93
2023-03-31T22:35:18.493Z,8.95
2023-03-31T22:37:48.752Z,8.95
2023-03-31T22:40:17.991Z,8.96
2023-03-31T22:42:48.187Z,8.95
2023-03-31T22:45:17.535Z,8.95
2023-03-31T22:47:47.777Z,8.96
2023-03-31T22:50:18.259Z,8.94
2023-03-31T22:52:47.641Z,8.93
2023-03-31T22:55:17.735Z,8.92
2023-03-31T22:57:47.537Z,8.90
2023-03-31T23:00:18.650Z,8.87
2023-03-31T23:02:48.633Z,8.84
2023-03-31T23:05:19.372Z,8.81
2023-03-31T23:07:50.370Z,8.79
2023-03-31T23:10:20.482Z,8.74
2023-03-31T23:12:50.266Z,8.72
2023-03-31T23:15:21.127Z,8.69
2023-03-31T23:17:50.714Z,8.68
2023-03-31T23:20:21.920Z,8.65
2023-03-31T23:22:54.003Z,8.64
2023-03-31T23:25:24.970Z,8.64
2023-03-31T23:27:54.453Z,8.63
2023-03-31T23:30:24.064Z,8.62
2023-03-31T23:32:55.323Z,8.61
2023-03-31T23:35:25.224Z,8.61
2023-03-31T23:37:56.170Z,8.63
2023-03-31T23:40:25.612Z,8.63
2023-03-31T23:42:57.638Z,8.63
2023-03-31T23:45:27.953Z,8.64
2023-03-31T23:47:57.696Z,8.65
2023-03-31T23:50:28.714Z,8.65
2023-03-31T23:53:01.816Z,8.66
2023-03-31T23:55:31.974Z,8.66
2023-03-31T23:58:03.749Z,8.65
